Terminal Aerodrome Forecast
Issued by NWS

Home | Current Version | Previous Version | Text Only | Print | Product List | Glossary On
Versions: 1 2 3 4 5 6 7 8 9 10 11 12
000
FTUS45 KVEF 221722
TAFEED
TAF
KEED 221722Z 2218/2318 36014G19KT P6SM SKC
     FM222100 01012KT P6SM SKC
     FM230400 34008KT P6SM SKC
     FM231700 01018G26KT P6SM SKC=

USA.gov is the U.S. government's official web portal to all federal, state and local government web resources and services.